createdAt,value
2023-01-29T00:00:57.849Z,76.78
2023-01-29T00:03:21.687Z,75.99
2023-01-29T00:05:34.934Z,75.26
2023-01-29T00:07:50.544Z,75.23
2023-01-29T00:10:06.771Z,75.34
2023-01-29T00:12:20.052Z,75.16
2023-01-29T00:14:33.231Z,74.85
2023-01-29T00:16:46.412Z,74.10
2023-01-29T00:19:00.903Z,73.90
2023-01-29T00:21:17.626Z,73.14
2023-01-29T00:23:30.932Z,73.44
2023-01-29T00:25:44.510Z,74.16
2023-01-29T00:27:58.480Z,74.24
2023-01-29T00:30:20.431Z,74.46
2023-01-29T00:32:33.668Z,74.46
2023-01-29T00:34:48.357Z,74.38
2023-01-29T00:37:07.476Z,74.03
2023-01-29T00:39:31.386Z,74.09
2023-01-29T00:42:05.967Z,74.04
2023-01-29T00:44:35.674Z,73.89
2023-01-29T00:46:49.734Z,74.06
2023-01-29T00:49:03.590Z,74.20
2023-01-29T00:51:21.485Z,74.23
2023-01-29T00:53:34.555Z,74.29
2023-01-29T00:55:47.951Z,74.04
2023-01-29T00:58:00.883Z,74.13
2023-01-29T01:00:19.975Z,74.40
2023-01-29T01:02:52.267Z,74.15
2023-01-29T01:05:03.627Z,73.45
2023-01-29T01:07:16.533Z,73.78
2023-01-29T01:09:46.160Z,73.65
2023-01-29T01:11:59.544Z,73.33
2023-01-29T01:14:12.504Z,73.45
2023-01-29T01:16:29.472Z,73.76
2023-01-29T01:18:42.574Z,73.38
2023-01-29T01:21:00.742Z,73.34
2023-01-29T01:23:14.245Z,73.57
2023-01-29T01:25:28.347Z,73.37
2023-01-29T01:27:42.393Z,72.83
2023-01-29T01:29:57.719Z,72.95
2023-01-29T01:32:14.404Z,72.97
2023-01-29T01:34:30.017Z,72.54
2023-01-29T01:36:43.167Z,72.68
2023-01-29T01:38:59.071Z,72.87
2023-01-29T01:41:12.641Z,72.46
2023-01-29T01:43:26.340Z,71.91
2023-01-29T01:45:40.430Z,72.31
2023-01-29T01:47:56.217Z,72.17
2023-01-29T01:50:19.305Z,72.27
2023-01-29T01:52:33.056Z,72.40
2023-01-29T01:54:46.280Z,72.82
2023-01-29T01:57:10.378Z,72.80
2023-01-29T01:59:25.082Z,72.47
2023-01-29T02:01:39.557Z,72.73
2023-01-29T02:04:17.091Z,72.91
2023-01-29T02:06:46.622Z,72.07
2023-01-29T02:09:21.867Z,72.49
2023-01-29T02:11:35.807Z,72.35
2023-01-29T02:13:55.006Z,72.23
2023-01-29T02:16:12.182Z,72.50
2023-01-29T02:18:26.764Z,72.61
2023-01-29T02:20:41.456Z,72.87
2023-01-29T02:23:24.497Z,72.92
2023-01-29T02:26:07.970Z,72.93
2023-01-29T02:28:28.571Z,72.85
2023-01-29T02:30:46.382Z,73.11
2023-01-29T02:33:08.679Z,72.91
2023-01-29T02:35:30.661Z,72.92
2023-01-29T02:37:48.932Z,73.04
2023-01-29T02:40:12.519Z,73.05
2023-01-29T02:42:31.395Z,73.02
2023-01-29T02:44:50.413Z,72.87
2023-01-29T02:47:10.600Z,72.49
2023-01-29T02:49:33.253Z,72.32
2023-01-29T02:51:46.809Z,72.22
2023-01-29T02:54:11.671Z,72.25
2023-01-29T02:56:27.762Z,72.14
2023-01-29T02:58:48.863Z,72.27
2023-01-29T03:01:10.209Z,71.98
2023-01-29T03:03:27.156Z,71.72
2023-01-29T03:05:52.226Z,71.71
2023-01-29T03:08:11.382Z,71.15
2023-01-29T03:10:28.732Z,71.22
2023-01-29T03:12:44.407Z,70.95
2023-01-29T03:15:18.059Z,70.83
2023-01-29T03:17:48.585Z,70.60
2023-01-29T03:20:08.512Z,70.71
2023-01-29T03:22:24.431Z,70.36
2023-01-29T03:25:01.260Z,70.23
2023-01-29T03:27:35.513Z,69.43
2023-01-29T03:30:06.718Z,69.32
2023-01-29T03:32:42.575Z,69.31
2023-01-29T03:35:05.117Z,69.07
2023-01-29T03:37:24.864Z,68.62
2023-01-29T03:39:40.345Z,68.19
2023-01-29T03:41:58.112Z,67.96
2023-01-29T03:44:19.145Z,68.16
2023-01-29T03:46:35.418Z,67.82
2023-01-29T03:48:57.777Z,68.10
2023-01-29T03:51:22.443Z,68.05
2023-01-29T03:53:46.416Z,68.14
2023-01-29T03:56:08.194Z,67.31
2023-01-29T03:58:32.005Z,67.36
2023-01-29T04:00:56.277Z,66.58
2023-01-29T04:03:16.863Z,67.12
2023-01-29T04:05:33.870Z,66.94
2023-01-29T04:08:05.431Z,66.72
2023-01-29T04:10:21.426Z,66.33
2023-01-29T04:12:39.888Z,65.60
2023-01-29T04:14:58.246Z,66.13
2023-01-29T04:17:20.348Z,66.11
2023-01-29T04:19:51.171Z,64.45
2023-01-29T04:22:10.668Z,64.44
2023-01-29T04:24:26.138Z,64.26
2023-01-29T04:26:54.345Z,63.70
2023-01-29T04:29:19.809Z,63.17
2023-01-29T04:31:40.732Z,63.24
2023-01-29T04:34:07.714Z,62.49
2023-01-29T04:36:37.559Z,62.85
2023-01-29T04:39:00.669Z,62.67
2023-01-29T04:41:20.172Z,62.79
2023-01-29T04:43:41.230Z,61.36
2023-01-29T04:46:11.785Z,61.45
2023-01-29T04:48:31.573Z,61.30
2023-01-29T04:50:50.852Z,60.82
2023-01-29T04:53:11.088Z,60.49
2023-01-29T04:55:36.629Z,59.11
2023-01-29T04:57:59.115Z,59.91
2023-01-29T05:00:13.376Z,59.19
2023-01-29T05:02:30.405Z,58.18
2023-01-29T05:04:45.244Z,57.71
2023-01-29T05:06:59.922Z,57.24
2023-01-29T05:09:16.495Z,57.42
2023-01-29T05:11:30.698Z,58.46
2023-01-29T05:13:46.433Z,58.06
2023-01-29T05:16:05.332Z,58.38
2023-01-29T05:18:21.746Z,57.01
2023-01-29T05:20:38.991Z,57.67
2023-01-29T05:22:52.721Z,57.57
2023-01-29T05:25:06.368Z,58.21
2023-01-29T05:27:39.910Z,57.65
2023-01-29T05:29:53.341Z,57.79
2023-01-29T05:32:08.592Z,57.56
2023-01-29T05:34:21.180Z,57.47
2023-01-29T05:36:41.069Z,57.06
2023-01-29T05:38:56.705Z,56.78
2023-01-29T05:41:10.022Z,56.58
2023-01-29T05:43:27.030Z,56.53
2023-01-29T05:45:40.295Z,55.37
2023-01-29T05:47:53.355Z,54.61
2023-01-29T05:50:07.094Z,54.98
2023-01-29T05:52:20.120Z,55.50
2023-01-29T05:54:33.438Z,55.15
2023-01-29T05:56:46.316Z,55.18
2023-01-29T05:59:04.797Z,54.28
2023-01-29T06:01:21.262Z,54.71
2023-01-29T06:03:35.030Z,54.63
2023-01-29T06:05:49.620Z,54.91
2023-01-29T06:08:02.492Z,54.74
2023-01-29T06:10:20.438Z,52.66
2023-01-29T06:12:33.261Z,52.25
2023-01-29T06:14:49.014Z,53.18
2023-01-29T06:17:01.814Z,53.52
2023-01-29T06:19:15.007Z,53.19
2023-01-29T06:21:27.592Z,52.86
2023-01-29T06:23:40.832Z,52.19
2023-01-29T06:25:54.057Z,52.31
2023-01-29T06:28:07.806Z,52.70
2023-01-29T06:30:21.848Z,52.89
2023-01-29T06:32:36.495Z,51.85
2023-01-29T06:34:49.852Z,51.18
2023-01-29T06:37:02.630Z,51.32
2023-01-29T06:39:16.326Z,51.82
2023-01-29T06:41:29.670Z,52.18
2023-01-29T06:43:43.465Z,51.76
2023-01-29T06:45:58.004Z,51.75
2023-01-29T06:48:11.451Z,52.19
2023-01-29T06:50:24.641Z,52.21
2023-01-29T06:52:37.433Z,50.92
2023-01-29T06:54:49.968Z,51.24
2023-01-29T06:57:02.680Z,51.78
2023-01-29T06:59:17.100Z,52.34
2023-01-29T07:01:36.164Z,51.76
2023-01-29T07:03:52.204Z,51.91
2023-01-29T07:06:04.787Z,51.31
2023-01-29T07:08:18.407Z,51.33
2023-01-29T07:10:31.335Z,51.43
2023-01-29T07:12:44.096Z,50.82
2023-01-29T07:14:56.911Z,51.02
2023-01-29T07:17:09.393Z,50.95
2023-01-29T07:19:25.050Z,50.97
2023-01-29T07:21:37.599Z,49.87
2023-01-29T07:23:52.988Z,49.80
2023-01-29T07:26:09.291Z,48.89
2023-01-29T07:28:28.191Z,49.14
2023-01-29T07:30:41.681Z,49.44
2023-01-29T07:32:54.412Z,49.00
2023-01-29T07:35:07.078Z,48.88
2023-01-29T07:37:20.370Z,48.76
2023-01-29T07:39:33.228Z,48.77
2023-01-29T07:41:45.843Z,49.09
2023-01-29T07:44:02.070Z,48.75
2023-01-29T07:46:14.740Z,47.76
2023-01-29T07:48:27.442Z,47.91
2023-01-29T07:50:44.370Z,47.31
2023-01-29T07:52:59.606Z,47.35
2023-01-29T07:55:13.270Z,47.89
2023-01-29T07:57:26.205Z,47.43
2023-01-29T07:59:39.124Z,47.70
2023-01-29T08:01:58.094Z,47.46
2023-01-29T08:04:10.878Z,47.59
2023-01-29T08:06:27.000Z,48.44
2023-01-29T08:08:45.542Z,47.52
2023-01-29T08:10:58.755Z,48.38
2023-01-29T08:13:12.174Z,48.01
2023-01-29T08:15:24.974Z,48.26
2023-01-29T08:20:15.939Z,47.55
2023-01-29T08:22:28.707Z,48.11
2023-01-29T08:24:53.702Z,48.18
2023-01-29T08:27:15.551Z,47.46
2023-01-29T08:29:28.513Z,46.94
2023-01-29T08:31:41.177Z,47.17
2023-01-29T08:33:56.736Z,47.42
2023-01-29T08:36:09.777Z,46.54
2023-01-29T08:38:22.372Z,47.05
2023-01-29T08:40:39.057Z,47.27
2023-01-29T08:42:51.680Z,47.62
2023-01-29T08:45:04.283Z,47.67
2023-01-29T08:47:19.976Z,47.24
2023-01-29T08:49:32.640Z,47.25
2023-01-29T08:51:46.397Z,47.25
2023-01-29T08:54:00.422Z,47.22
2023-01-29T08:56:17.387Z,47.26
2023-01-29T08:58:30.568Z,47.46
2023-01-29T09:00:43.761Z,47.70
2023-01-29T09:02:56.656Z,47.63
2023-01-29T09:05:13.666Z,47.59
2023-01-29T09:07:27.995Z,47.04
2023-01-29T09:09:41.010Z,46.90
2023-01-29T09:11:56.880Z,46.82
2023-01-29T09:14:13.415Z,47.23
2023-01-29T09:16:28.584Z,45.87
2023-01-29T09:18:41.488Z,46.21
2023-01-29T09:20:54.273Z,45.92
2023-01-29T09:23:10.065Z,45.82
2023-01-29T09:25:25.849Z,45.57
2023-01-29T09:27:39.561Z,46.00
2023-01-29T09:29:52.582Z,46.10
2023-01-29T09:32:05.449Z,46.31
2023-01-29T09:34:22.425Z,46.46
2023-01-29T09:36:35.594Z,46.81
2023-01-29T09:38:48.096Z,46.77
2023-01-29T09:41:17.670Z,46.14
2023-01-29T09:43:43.899Z,46.26
2023-01-29T09:46:01.787Z,46.40
2023-01-29T09:48:16.900Z,45.93
2023-01-29T09:50:39.291Z,44.91
2023-01-29T09:52:57.118Z,44.90
2023-01-29T09:55:16.008Z,44.93
2023-01-29T09:57:37.407Z,45.11
2023-01-29T09:59:49.985Z,44.15
2023-01-29T10:02:13.708Z,44.27
2023-01-29T10:04:50.028Z,44.45
2023-01-29T10:07:26.179Z,44.67
2023-01-29T10:10:13.004Z,45.33
2023-01-29T10:12:46.353Z,45.25
2023-01-29T10:15:06.101Z,45.01
2023-01-29T10:17:35.432Z,45.08
2023-01-29T10:20:17.783Z,45.22
2023-01-29T10:22:54.780Z,45.25
2023-01-29T10:25:10.012Z,44.51
2023-01-29T10:27:23.419Z,45.33
2023-01-29T10:29:40.607Z,45.08
2023-01-29T10:31:57.209Z,44.67
2023-01-29T10:34:16.938Z,44.34
2023-01-29T10:36:36.395Z,44.94
2023-01-29T10:38:54.646Z,44.72
2023-01-29T10:41:23.004Z,44.92
2023-01-29T10:43:46.498Z,44.20
2023-01-29T10:46:07.711Z,44.14
2023-01-29T10:48:49.272Z,44.55
2023-01-29T10:51:13.188Z,44.22
2023-01-29T10:53:56.788Z,43.80
2023-01-29T10:56:27.254Z,44.65
2023-01-29T10:58:46.761Z,43.98
2023-01-29T11:00:59.651Z,44.11
2023-01-29T11:03:27.561Z,43.99
2023-01-29T11:05:46.949Z,44.22
2023-01-29T11:08:10.895Z,44.12
2023-01-29T11:10:26.801Z,43.38
2023-01-29T11:12:41.215Z,43.61
2023-01-29T11:14:56.577Z,44.56
2023-01-29T11:17:09.351Z,44.62
2023-01-29T11:19:32.969Z,44.67
2023-01-29T11:22:00.122Z,44.15
2023-01-29T11:24:18.272Z,44.66
2023-01-29T11:26:31.116Z,44.49
2023-01-29T11:28:45.427Z,44.76
2023-01-29T11:30:58.827Z,44.01
2023-01-29T11:33:23.171Z,43.85
2023-01-29T11:35:36.847Z,44.21
2023-01-29T11:37:51.242Z,44.16
2023-01-29T11:40:04.197Z,44.43
2023-01-29T11:42:25.295Z,44.16
2023-01-29T11:44:44.152Z,44.05
2023-01-29T11:47:00.470Z,44.07
2023-01-29T11:49:35.532Z,44.50
2023-01-29T11:51:54.207Z,44.80
2023-01-29T11:54:10.834Z,44.81
2023-01-29T11:56:44.910Z,44.74
2023-01-29T11:58:59.434Z,44.80
2023-01-29T12:01:16.325Z,44.43
2023-01-29T12:03:37.949Z,44.88
2023-01-29T12:06:01.734Z,44.79
2023-01-29T12:08:23.913Z,44.86
2023-01-29T12:10:42.059Z,44.78
2023-01-29T12:13:10.201Z,44.73
2023-01-29T12:15:32.432Z,44.90
2023-01-29T12:17:42.859Z,44.95
2023-01-29T12:20:00.846Z,44.75
2023-01-29T12:22:19.574Z,44.97
2023-01-29T12:24:38.056Z,44.79
2023-01-29T12:26:57.529Z,44.95
2023-01-29T12:29:26.515Z,45.11
2023-01-29T12:31:47.560Z,45.46
2023-01-29T12:34:09.015Z,45.09
2023-01-29T12:36:27.048Z,44.97
2023-01-29T12:38:42.214Z,45.22
2023-01-29T12:41:00.610Z,44.32
2023-01-29T12:43:19.649Z,44.82
2023-01-29T12:45:37.097Z,45.00
2023-01-29T12:47:55.545Z,45.02
2023-01-29T12:50:18.450Z,44.93
2023-01-29T12:52:43.286Z,44.38
2023-01-29T12:55:01.591Z,44.57
2023-01-29T12:57:27.387Z,45.00
2023-01-29T12:59:48.890Z,44.73
2023-01-29T13:02:07.512Z,44.70
2023-01-29T13:04:24.097Z,44.52
2023-01-29T13:06:43.555Z,44.43
2023-01-29T13:08:59.587Z,44.42
2023-01-29T13:11:18.826Z,44.43
2023-01-29T13:13:37.302Z,44.00
2023-01-29T13:15:50.859Z,43.94
2023-01-29T13:18:10.335Z,44.09
2023-01-29T13:20:29.913Z,44.25
2023-01-29T13:22:47.410Z,44.31
2023-01-29T13:25:04.989Z,44.48
2023-01-29T13:27:28.869Z,44.60
2023-01-29T13:29:42.844Z,44.56
2023-01-29T13:31:57.400Z,44.48
2023-01-29T13:34:17.786Z,44.51
2023-01-29T13:36:35.159Z,44.43
2023-01-29T13:38:57.373Z,44.45
2023-01-29T13:41:11.779Z,44.54
2023-01-29T13:43:27.127Z,44.48
2023-01-29T13:45:49.573Z,44.25
2023-01-29T13:48:21.939Z,43.58
2023-01-29T13:50:40.710Z,43.39
2023-01-29T13:53:00.566Z,43.97
2023-01-29T13:55:27.229Z,43.95
2023-01-29T13:57:59.652Z,43.85
2023-01-29T14:00:37.638Z,43.78
2023-01-29T14:02:50.934Z,43.56
2023-01-29T14:05:43.677Z,43.00
2023-01-29T14:07:57.269Z,42.90
2023-01-29T14:10:20.797Z,43.25
2023-01-29T14:12:54.080Z,42.14
2023-01-29T14:15:22.120Z,42.62
2023-01-29T14:17:36.167Z,43.03
2023-01-29T14:19:56.158Z,42.88
2023-01-29T14:22:10.609Z,42.32
2023-01-29T14:24:34.356Z,42.25
2023-01-29T14:26:52.320Z,41.17
2023-01-29T14:29:12.940Z,41.11
2023-01-29T14:31:46.203Z,41.16
2023-01-29T14:34:03.467Z,41.17
2023-01-29T14:36:23.703Z,41.14
2023-01-29T14:38:38.525Z,41.49
2023-01-29T14:40:52.571Z,41.34
2023-01-29T14:43:09.944Z,41.87
2023-01-29T14:45:34.016Z,41.47
2023-01-29T14:48:07.453Z,41.27
2023-01-29T14:50:54.229Z,40.12
2023-01-29T14:53:09.807Z,40.21
2023-01-29T14:55:32.778Z,41.03
2023-01-29T14:57:46.389Z,40.71
2023-01-29T15:00:03.387Z,39.21
2023-01-29T15:02:23.415Z,40.17
2023-01-29T15:04:42.586Z,39.48
2023-01-29T15:06:59.371Z,40.07
2023-01-29T15:09:21.131Z,40.39
2023-01-29T15:11:46.655Z,40.39
2023-01-29T15:14:07.021Z,40.76
2023-01-29T15:16:26.497Z,40.29
2023-01-29T15:18:42.738Z,40.31
2023-01-29T15:21:05.755Z,40.71
2023-01-29T15:23:33.147Z,41.10
2023-01-29T15:25:57.166Z,40.26
2023-01-29T15:28:16.455Z,40.49
2023-01-29T15:30:35.247Z,40.72
2023-01-29T15:32:48.607Z,39.89
2023-01-29T15:35:02.275Z,40.05
2023-01-29T15:37:33.441Z,40.45
2023-01-29T15:39:53.866Z,40.66
2023-01-29T15:42:24.753Z,40.60
2023-01-29T15:44:37.982Z,40.38
2023-01-29T15:46:53.188Z,40.56
2023-01-29T15:49:10.668Z,40.20
2023-01-29T15:51:25.873Z,38.86
2023-01-29T15:53:45.166Z,39.42
2023-01-29T15:56:01.031Z,39.95
2023-01-29T15:58:19.378Z,40.32
2023-01-29T16:00:33.784Z,40.29
2023-01-29T16:02:47.274Z,40.09
2023-01-29T16:05:01.687Z,40.26
2023-01-29T16:07:15.165Z,40.82
2023-01-29T16:09:29.427Z,40.78
2023-01-29T16:11:42.640Z,40.47
2023-01-29T16:13:59.026Z,40.97
2023-01-29T16:16:27.201Z,40.22
2023-01-29T16:18:57.864Z,39.63
2023-01-29T16:21:18.444Z,40.06
2023-01-29T16:23:34.432Z,40.27
2023-01-29T16:25:47.934Z,40.13
2023-01-29T16:28:00.870Z,40.17
2023-01-29T16:30:17.836Z,40.39
2023-01-29T16:32:32.603Z,40.43
2023-01-29T16:34:49.047Z,39.37
2023-01-29T16:37:03.870Z,38.96
2023-01-29T16:39:21.906Z,39.06
2023-01-29T16:41:40.621Z,38.67
2023-01-29T16:43:57.120Z,38.21
2023-01-29T16:46:19.847Z,37.02
2023-01-29T16:48:37.437Z,34.94
2023-01-29T16:50:55.261Z,35.08
2023-01-29T16:53:24.257Z,33.39
2023-01-29T16:55:46.674Z,33.97
2023-01-29T16:58:00.240Z,33.44
2023-01-29T17:00:21.596Z,33.30
2023-01-29T17:02:42.267Z,33.43
2023-01-29T17:04:57.106Z,31.55
2023-01-29T17:07:09.771Z,32.07
2023-01-29T17:09:31.741Z,31.84
2023-01-29T17:11:47.367Z,33.28
2023-01-29T17:14:01.241Z,33.39
2023-01-29T17:16:29.796Z,33.11
2023-01-29T17:18:43.090Z,33.08
2023-01-29T17:20:57.280Z,33.01
2023-01-29T17:23:10.374Z,32.99
2023-01-29T17:25:24.906Z,32.48
2023-01-29T17:27:38.645Z,32.92
2023-01-29T17:29:55.458Z,32.78
2023-01-29T17:32:12.454Z,30.28
2023-01-29T17:34:25.333Z,31.65
2023-01-29T17:36:38.379Z,31.85
2023-01-29T17:38:51.781Z,32.29
2023-01-29T17:41:09.051Z,32.14
2023-01-29T17:43:21.858Z,31.59
2023-01-29T17:45:34.524Z,32.00
2023-01-29T17:47:47.682Z,31.52
2023-01-29T17:50:03.169Z,29.67
2023-01-29T17:52:15.998Z,30.13
2023-01-29T17:54:30.156Z,29.15
2023-01-29T17:56:43.609Z,30.03
2023-01-29T17:58:59.573Z,30.63
2023-01-29T18:01:12.647Z,30.73
2023-01-29T18:03:28.603Z,30.92
2023-01-29T18:05:43.575Z,31.32
2023-01-29T18:07:57.192Z,30.61
2023-01-29T18:10:14.590Z,29.59
2023-01-29T18:12:28.433Z,28.68
2023-01-29T18:14:42.051Z,27.36
2023-01-29T18:16:57.221Z,27.74
2023-01-29T18:19:19.906Z,29.09
2023-01-29T18:21:33.109Z,29.87
2023-01-29T18:23:45.918Z,29.40
2023-01-29T18:26:00.163Z,29.06
2023-01-29T18:28:15.830Z,27.35
2023-01-29T18:30:30.757Z,28.47
2023-01-29T18:32:44.215Z,28.23
2023-01-29T18:34:56.936Z,28.04
2023-01-29T18:37:12.125Z,28.09
2023-01-29T18:39:25.758Z,25.47
2023-01-29T18:41:40.272Z,26.42
2023-01-29T18:43:53.768Z,26.54
2023-01-29T18:46:07.821Z,26.30
2023-01-29T18:48:20.641Z,26.49
2023-01-29T18:50:45.398Z,27.37
2023-01-29T18:52:58.490Z,27.12
2023-01-29T18:55:12.835Z,25.75
2023-01-29T18:58:28.772Z,26.59
2023-01-29T18:59:58.869Z,25.31
2023-01-29T19:02:13.813Z,26.30
2023-01-29T19:04:26.934Z,27.09
2023-01-29T19:06:43.135Z,27.42
2023-01-29T19:08:56.305Z,27.59
2023-01-29T19:11:10.012Z,27.58
2023-01-29T19:13:23.256Z,26.67
2023-01-29T19:15:37.902Z,25.32
2023-01-29T19:17:53.609Z,25.26
2023-01-29T19:20:06.634Z,26.45
2023-01-29T19:22:22.544Z,27.23
2023-01-29T19:24:40.055Z,26.92
2023-01-29T19:26:53.027Z,26.19
2023-01-29T19:29:09.266Z,27.58
2023-01-29T19:31:22.294Z,27.22
2023-01-29T19:33:35.639Z,26.43
2023-01-29T19:35:54.119Z,26.62
2023-01-29T19:38:07.802Z,25.87
2023-01-29T19:40:21.145Z,26.02
2023-01-29T19:42:35.955Z,25.48
2023-01-29T19:44:49.242Z,26.46
2023-01-29T19:47:02.130Z,26.90
2023-01-29T19:49:15.703Z,27.03
2023-01-29T19:51:29.312Z,27.63
2023-01-29T19:53:44.802Z,26.13
2023-01-29T19:56:06.801Z,25.08
2023-01-29T19:58:19.486Z,25.77
2023-01-29T20:00:33.230Z,25.80
2023-01-29T20:02:46.451Z,26.08
2023-01-29T20:04:59.719Z,26.15
2023-01-29T20:07:15.338Z,25.22
2023-01-29T20:09:31.380Z,25.86
2023-01-29T20:11:44.254Z,26.38
2023-01-29T20:14:00.297Z,26.39
2023-01-29T20:16:13.983Z,26.62
2023-01-29T20:18:27.240Z,27.35
2023-01-29T20:20:45.652Z,24.91
2023-01-29T20:22:59.341Z,25.50
2023-01-29T20:25:14.708Z,26.14
2023-01-29T20:27:27.396Z,26.97
2023-01-29T20:29:39.968Z,27.28
2023-01-29T20:31:53.286Z,27.27
2023-01-29T20:34:06.255Z,25.62
2023-01-29T20:36:19.531Z,25.32
2023-01-29T20:38:33.153Z,26.22
2023-01-29T20:40:45.904Z,27.15
2023-01-29T20:42:58.973Z,26.81
2023-01-29T20:45:14.235Z,27.28
2023-01-29T20:47:27.090Z,27.39
2023-01-29T20:49:40.166Z,27.20
2023-01-29T20:51:53.155Z,26.88
2023-01-29T20:54:06.114Z,26.23
2023-01-29T20:56:26.992Z,27.28
2023-01-29T20:58:49.474Z,27.14
2023-01-29T21:01:03.589Z,26.96
2023-01-29T21:03:17.630Z,25.75
2023-01-29T21:05:30.252Z,26.58
2023-01-29T21:07:42.921Z,26.11
2023-01-29T21:09:58.669Z,26.33
2023-01-29T21:12:12.183Z,26.25
2023-01-29T21:14:25.279Z,27.12
2023-01-29T21:16:38.160Z,26.95
2023-01-29T21:18:51.001Z,26.52
2023-01-29T21:21:04.082Z,26.92
2023-01-29T21:23:16.921Z,25.58
2023-01-29T21:25:29.652Z,26.22
2023-01-29T21:27:45.828Z,25.98
2023-01-29T21:30:02.227Z,26.25
2023-01-29T21:32:15.083Z,25.49
2023-01-29T21:34:28.500Z,26.09
2023-01-29T21:36:41.787Z,26.51
2023-01-29T21:38:56.531Z,26.25
2023-01-29T21:41:13.361Z,25.58
2023-01-29T21:43:26.722Z,25.56
2023-01-29T21:45:39.214Z,25.77
2023-01-29T21:47:53.754Z,25.60
2023-01-29T21:50:06.885Z,25.99
2023-01-29T21:52:23.251Z,26.11
2023-01-29T21:54:36.692Z,25.77
2023-01-29T21:56:49.490Z,26.13
2023-01-29T21:59:03.372Z,26.36
2023-01-29T22:01:37.938Z,26.78
2023-01-29T22:03:52.389Z,26.03
2023-01-29T22:06:08.795Z,26.25
2023-01-29T22:08:22.290Z,26.76
2023-01-29T22:10:37.534Z,26.46
2023-01-29T22:12:50.737Z,26.87
2023-01-29T22:15:03.408Z,25.86
2023-01-29T22:17:17.453Z,26.28
2023-01-29T22:19:31.149Z,26.18
2023-01-29T22:21:43.747Z,26.48
2023-01-29T22:23:56.465Z,26.50
2023-01-29T22:26:14.345Z,26.66
2023-01-29T22:28:27.345Z,26.22
2023-01-29T22:30:39.829Z,27.03
2023-01-29T22:32:52.996Z,26.67
2023-01-29T22:35:05.858Z,26.55
2023-01-29T22:37:18.871Z,26.75
2023-01-29T22:39:31.580Z,26.31
2023-01-29T22:41:44.397Z,25.88
2023-01-29T22:43:57.574Z,25.92
2023-01-29T22:46:12.860Z,26.90
2023-01-29T22:48:25.535Z,26.44
2023-01-29T22:50:38.173Z,26.70
2023-01-29T22:52:54.913Z,26.82
2023-01-29T22:55:08.868Z,26.28
2023-01-29T22:57:22.279Z,27.09
2023-01-29T22:59:35.505Z,27.09
2023-01-29T23:01:51.006Z,26.35
2023-01-29T23:04:03.732Z,26.85
2023-01-29T23:06:16.460Z,27.39
2023-01-29T23:08:29.828Z,26.02
2023-01-29T23:10:42.782Z,26.44
2023-01-29T23:12:55.448Z,25.97
2023-01-29T23:15:08.422Z,25.94
2023-01-29T23:17:21.584Z,26.50
2023-01-29T23:19:34.230Z,25.70
2023-01-29T23:21:46.940Z,25.53
2023-01-29T23:24:00.697Z,25.58
2023-01-29T23:26:33.303Z,25.98
2023-01-29T23:28:45.999Z,26.52
2023-01-29T23:30:58.817Z,25.14
2023-01-29T23:33:12.390Z,25.70
2023-01-29T23:35:25.221Z,25.24
2023-01-29T23:37:39.779Z,25.75
2023-01-29T23:39:54.860Z,26.66
2023-01-29T23:42:08.164Z,26.35
2023-01-29T23:44:22.077Z,25.39
2023-01-29T23:46:37.004Z,26.19
2023-01-29T23:48:49.698Z,26.50
2023-01-29T23:51:05.146Z,26.22
2023-01-29T23:53:17.893Z,26.43
2023-01-29T23:55:32.110Z,26.43
2023-01-29T23:57:47.144Z,26.65
